sensor_id;sensor_type;location;lat;lon;timestamp;P1;durP1;ratioP1;P2;durP2;ratioP2
47894;SDS011;33653;52.302;8.134;2022-11-15T00:02:37;11.20;;;6.63;;
47894;SDS011;33653;52.302;8.134;2022-11-15T00:05:24;12.35;;;6.28;;
47894;SDS011;33653;52.302;8.134;2022-11-15T00:08:10;11.82;;;6.72;;
47894;SDS011;33653;52.302;8.134;2022-11-15T00:10:57;10.93;;;6.15;;
47894;SDS011;33653;52.302;8.134;2022-11-15T00:13:47;8.82;;;5.15;;
47894;SDS011;33653;52.302;8.134;2022-11-15T00:16:34;7.47;;;5.43;;
47894;SDS011;33653;52.302;8.134;2022-11-15T00:19:20;10.25;;;6.07;;
47894;SDS011;33653;52.302;8.134;2022-11-15T00:22:07;8.70;;;5.25;;
47894;SDS011;33653;52.302;8.134;2022-11-15T00:24:54;6.97;;;5.25;;
47894;SDS011;33653;52.302;8.134;2022-11-15T00:27:40;8.80;;;4.47;;
47894;SDS011;33653;52.302;8.134;2022-11-15T00:30:27;6.72;;;4.22;;
47894;SDS011;33653;52.302;8.134;2022-11-15T00:33:14;8.65;;;5.70;;
47894;SDS011;33653;52.302;8.134;2022-11-15T00:36:04;9.13;;;4.93;;
47894;SDS011;33653;52.302;8.134;2022-11-15T00:38:54;9.90;;;4.90;;
47894;SDS011;33653;52.302;8.134;2022-11-15T00:41:40;6.43;;;4.63;;
47894;SDS011;33653;52.302;8.134;2022-11-15T00:44:27;8.68;;;6.28;;
47894;SDS011;33653;52.302;8.134;2022-11-15T00:47:14;9.35;;;5.88;;
47894;SDS011;33653;52.302;8.134;2022-11-15T00:50:00;8.45;;;5.50;;
47894;SDS011;33653;52.302;8.134;2022-11-15T00:52:46;12.57;;;6.43;;
47894;SDS011;33653;52.302;8.134;2022-11-15T00:58:26;7.43;;;4.55;;
47894;SDS011;33653;52.302;8.134;2022-11-15T01:01:13;11.50;;;5.30;;
47894;SDS011;33653;52.302;8.134;2022-11-15T01:04:00;11.13;;;5.47;;
47894;SDS011;33653;52.302;8.134;2022-11-15T01:06:46;13.20;;;6.40;;
47894;SDS011;33653;52.302;8.134;2022-11-15T01:09:33;6.20;;;4.50;;
47894;SDS011;33653;52.302;8.134;2022-11-15T01:12:20;8.98;;;5.53;;
47894;SDS011;33653;52.302;8.134;2022-11-15T01:15:06;9.52;;;5.43;;
47894;SDS011;33653;52.302;8.134;2022-11-15T01:17:53;9.80;;;4.50;;
47894;SDS011;33653;52.302;8.134;2022-11-15T01:20:40;9.95;;;5.30;;
47894;SDS011;33653;52.302;8.134;2022-11-15T01:23:27;7.13;;;4.78;;
47894;SDS011;33653;52.302;8.134;2022-11-15T01:26:14;8.50;;;5.18;;
47894;SDS011;33653;52.302;8.134;2022-11-15T01:29:01;8.63;;;4.70;;
47894;SDS011;33653;52.302;8.134;2022-11-15T01:31:48;9.68;;;4.80;;
47894;SDS011;33653;52.302;8.134;2022-11-15T01:34:34;10.38;;;5.43;;
47894;SDS011;33653;52.302;8.134;2022-11-15T01:37:21;8.45;;;4.80;;
47894;SDS011;33653;52.302;8.134;2022-11-15T01:40:08;10.00;;;5.15;;
47894;SDS011;33653;52.302;8.134;2022-11-15T01:42:54;7.25;;;4.70;;
47894;SDS011;33653;52.302;8.134;2022-11-15T01:45:41;7.57;;;5.40;;
47894;SDS011;33653;52.302;8.134;2022-11-15T01:51:58;9.45;;;4.28;;
47894;SDS011;33653;52.302;8.134;2022-11-15T01:54:48;7.93;;;5.00;;
47894;SDS011;33653;52.302;8.134;2022-11-15T01:57:41;8.32;;;5.15;;
47894;SDS011;33653;52.302;8.134;2022-11-15T02:00:30;8.05;;;3.92;;
47894;SDS011;33653;52.302;8.134;2022-11-15T02:03:17;5.47;;;3.97;;
47894;SDS011;33653;52.302;8.134;2022-11-15T02:06:03;6.90;;;4.25;;
47894;SDS011;33653;52.302;8.134;2022-11-15T02:08:51;6.68;;;3.92;;
47894;SDS011;33653;52.302;8.134;2022-11-15T02:11:38;8.38;;;4.53;;
47894;SDS011;33653;52.302;8.134;2022-11-15T02:14:25;5.35;;;3.70;;
47894;SDS011;33653;52.302;8.134;2022-11-15T02:26:38;12.93;;;4.40;;
47894;SDS011;33653;52.302;8.134;2022-11-15T02:30:34;5.18;;;4.00;;
47894;SDS011;33653;52.302;8.134;2022-11-15T02:36:32;6.38;;;3.95;;
47894;SDS011;33653;52.302;8.134;2022-11-15T02:39:25;6.57;;;3.80;;
47894;SDS011;33653;52.302;8.134;2022-11-15T02:42:23;8.48;;;4.55;;
47894;SDS011;33653;52.302;8.134;2022-11-15T02:45:35;7.85;;;4.40;;
47894;SDS011;33653;52.302;8.134;2022-11-15T02:48:26;7.57;;;4.47;;
47894;SDS011;33653;52.302;8.134;2022-11-15T02:54:02;6.25;;;3.70;;
47894;SDS011;33653;52.302;8.134;2022-11-15T02:56:49;5.68;;;4.10;;
47894;SDS011;33653;52.302;8.134;2022-11-15T02:59:43;6.32;;;4.13;;
47894;SDS011;33653;52.302;8.134;2022-11-15T03:02:57;5.60;;;3.92;;
47894;SDS011;33653;52.302;8.134;2022-11-15T03:06:22;11.02;;;3.88;;
47894;SDS011;33653;52.302;8.134;2022-11-15T03:09:42;7.70;;;4.25;;
47894;SDS011;33653;52.302;8.134;2022-11-15T03:12:43;5.55;;;3.83;;
47894;SDS011;33653;52.302;8.134;2022-11-15T03:15:43;8.38;;;4.03;;
47894;SDS011;33653;52.302;8.134;2022-11-15T03:21:59;7.15;;;4.18;;
47894;SDS011;33653;52.302;8.134;2022-11-15T03:24:51;5.77;;;3.20;;
47894;SDS011;33653;52.302;8.134;2022-11-15T03:27:54;8.38;;;3.83;;
47894;SDS011;33653;52.302;8.134;2022-11-15T03:30:43;10.07;;;3.85;;
47894;SDS011;33653;52.302;8.134;2022-11-15T03:33:30;6.60;;;4.20;;
47894;SDS011;33653;52.302;8.134;2022-11-15T03:36:17;6.55;;;4.25;;
47894;SDS011;33653;52.302;8.134;2022-11-15T03:39:05;5.68;;;3.80;;
47894;SDS011;33653;52.302;8.134;2022-11-15T03:41:56;9.63;;;3.60;;
47894;SDS011;33653;52.302;8.134;2022-11-15T03:48:33;4.63;;;3.45;;
47894;SDS011;33653;52.302;8.134;2022-11-15T03:51:26;5.15;;;3.80;;
47894;SDS011;33653;52.302;8.134;2022-11-15T03:54:14;4.88;;;3.60;;
47894;SDS011;33653;52.302;8.134;2022-11-15T03:57:00;5.45;;;3.80;;
47894;SDS011;33653;52.302;8.134;2022-11-15T03:59:47;5.72;;;4.20;;
47894;SDS011;33653;52.302;8.134;2022-11-15T04:05:25;6.43;;;4.18;;
47894;SDS011;33653;52.302;8.134;2022-11-15T04:08:12;5.10;;;3.70;;
47894;SDS011;33653;52.302;8.134;2022-11-15T04:10:58;4.70;;;3.47;;
47894;SDS011;33653;52.302;8.134;2022-11-15T04:13:47;6.72;;;4.00;;
47894;SDS011;33653;52.302;8.134;2022-11-15T04:16:33;6.13;;;4.32;;
47894;SDS011;33653;52.302;8.134;2022-11-15T04:19:27;7.22;;;4.35;;
47894;SDS011;33653;52.302;8.134;2022-11-15T04:26:05;6.00;;;3.95;;
47894;SDS011;33653;52.302;8.134;2022-11-15T04:28:55;6.80;;;4.05;;
47894;SDS011;33653;52.302;8.134;2022-11-15T04:32:04;5.50;;;3.58;;
47894;SDS011;33653;52.302;8.134;2022-11-15T04:34:52;7.60;;;3.88;;
47894;SDS011;33653;52.302;8.134;2022-11-15T04:37:39;9.63;;;4.88;;
47894;SDS011;33653;52.302;8.134;2022-11-15T04:40:33;5.68;;;3.80;;
47894;SDS011;33653;52.302;8.134;2022-11-15T04:43:20;8.00;;;4.03;;
47894;SDS011;33653;52.302;8.134;2022-11-15T04:46:07;7.05;;;4.43;;
47894;SDS011;33653;52.302;8.134;2022-11-15T04:48:53;6.75;;;4.22;;
47894;SDS011;33653;52.302;8.134;2022-11-15T04:51:47;5.93;;;4.32;;
47894;SDS011;33653;52.302;8.134;2022-11-15T04:54:34;7.38;;;4.25;;
47894;SDS011;33653;52.302;8.134;2022-11-15T04:57:20;5.97;;;3.58;;
47894;SDS011;33653;52.302;8.134;2022-11-15T05:00:08;6.50;;;3.70;;
47894;SDS011;33653;52.302;8.134;2022-11-15T05:02:58;6.72;;;4.05;;
47894;SDS011;33653;52.302;8.134;2022-11-15T05:06:03;6.25;;;3.95;;
47894;SDS011;33653;52.302;8.134;2022-11-15T05:18:18;5.20;;;3.90;;
47894;SDS011;33653;52.302;8.134;2022-11-15T05:21:09;8.05;;;4.25;;
47894;SDS011;33653;52.302;8.134;2022-11-15T05:23:57;9.88;;;4.47;;
47894;SDS011;33653;52.302;8.134;2022-11-15T05:26:44;7.13;;;4.20;;
47894;SDS011;33653;52.302;8.134;2022-11-15T05:29:44;7.65;;;3.72;;
47894;SDS011;33653;52.302;8.134;2022-11-15T05:32:30;5.15;;;3.72;;
47894;SDS011;33653;52.302;8.134;2022-11-15T05:35:21;7.10;;;3.92;;
47894;SDS011;33653;52.302;8.134;2022-11-15T05:38:16;6.95;;;4.35;;
47894;SDS011;33653;52.302;8.134;2022-11-15T05:41:03;7.88;;;4.72;;
47894;SDS011;33653;52.302;8.134;2022-11-15T05:43:51;9.85;;;3.40;;
47894;SDS011;33653;52.302;8.134;2022-11-15T05:46:38;4.78;;;3.38;;
47894;SDS011;33653;52.302;8.134;2022-11-15T05:49:27;5.65;;;4.07;;
47894;SDS011;33653;52.302;8.134;2022-11-15T05:52:21;6.50;;;4.20;;
47894;SDS011;33653;52.302;8.134;2022-11-15T05:55:13;5.30;;;3.85;;
47894;SDS011;33653;52.302;8.134;2022-11-15T05:58:00;6.50;;;4.07;;
47894;SDS011;33653;52.302;8.134;2022-11-15T06:00:48;5.53;;;4.07;;
47894;SDS011;33653;52.302;8.134;2022-11-15T06:03:35;5.75;;;4.40;;
47894;SDS011;33653;52.302;8.134;2022-11-15T06:06:21;8.80;;;4.18;;
47894;SDS011;33653;52.302;8.134;2022-11-15T06:12:16;8.40;;;3.90;;
47894;SDS011;33653;52.302;8.134;2022-11-15T06:15:03;8.93;;;4.93;;
47894;SDS011;33653;52.302;8.134;2022-11-15T06:17:49;8.23;;;3.95;;
47894;SDS011;33653;52.302;8.134;2022-11-15T06:20:36;6.50;;;4.03;;
47894;SDS011;33653;52.302;8.134;2022-11-15T06:23:23;6.30;;;4.20;;
47894;SDS011;33653;52.302;8.134;2022-11-15T06:26:10;6.72;;;4.22;;
47894;SDS011;33653;52.302;8.134;2022-11-15T06:28:57;7.03;;;3.70;;
47894;SDS011;33653;52.302;8.134;2022-11-15T06:31:43;7.28;;;3.72;;
47894;SDS011;33653;52.302;8.134;2022-11-15T06:34:30;6.43;;;4.28;;
47894;SDS011;33653;52.302;8.134;2022-11-15T06:37:18;6.15;;;4.30;;
47894;SDS011;33653;52.302;8.134;2022-11-15T06:40:05;6.13;;;4.25;;
47894;SDS011;33653;52.302;8.134;2022-11-15T06:42:56;6.53;;;4.20;;
47894;SDS011;33653;52.302;8.134;2022-11-15T06:45:46;6.32;;;3.58;;
47894;SDS011;33653;52.302;8.134;2022-11-15T06:48:33;6.18;;;3.55;;
47894;SDS011;33653;52.302;8.134;2022-11-15T06:51:19;5.78;;;3.70;;
47894;SDS011;33653;52.302;8.134;2022-11-15T06:54:06;6.50;;;3.53;;
47894;SDS011;33653;52.302;8.134;2022-11-15T06:56:52;8.23;;;4.00;;
47894;SDS011;33653;52.302;8.134;2022-11-15T06:59:39;5.90;;;3.30;;
47894;SDS011;33653;52.302;8.134;2022-11-15T07:02:25;6.22;;;3.47;;
47894;SDS011;33653;52.302;8.134;2022-11-15T07:05:12;4.78;;;3.20;;
47894;SDS011;33653;52.302;8.134;2022-11-15T07:08:00;5.40;;;3.60;;
47894;SDS011;33653;52.302;8.134;2022-11-15T07:10:46;6.30;;;3.33;;
47894;SDS011;33653;52.302;8.134;2022-11-15T07:13:33;4.45;;;3.28;;
47894;SDS011;33653;52.302;8.134;2022-11-15T07:16:21;6.13;;;3.65;;
47894;SDS011;33653;52.302;8.134;2022-11-15T07:19:09;6.45;;;3.72;;
47894;SDS011;33653;52.302;8.134;2022-11-15T07:22:00;7.22;;;3.78;;
47894;SDS011;33653;52.302;8.134;2022-11-15T07:24:46;4.90;;;3.25;;
47894;SDS011;33653;52.302;8.134;2022-11-15T07:27:33;8.77;;;4.30;;
47894;SDS011;33653;52.302;8.134;2022-11-15T07:30:19;6.82;;;4.05;;
47894;SDS011;33653;52.302;8.134;2022-11-15T07:33:05;6.30;;;3.92;;
47894;SDS011;33653;52.302;8.134;2022-11-15T07:35:52;6.05;;;4.15;;
47894;SDS011;33653;52.302;8.134;2022-11-15T07:38:38;9.48;;;4.80;;
47894;SDS011;33653;52.302;8.134;2022-11-15T07:41:27;8.05;;;4.00;;
47894;SDS011;33653;52.302;8.134;2022-11-15T07:44:14;5.40;;;3.72;;
47894;SDS011;33653;52.302;8.134;2022-11-15T07:47:01;5.22;;;3.95;;
47894;SDS011;33653;52.302;8.134;2022-11-15T07:49:47;6.15;;;4.00;;
47894;SDS011;33653;52.302;8.134;2022-11-15T07:52:34;6.00;;;4.22;;
47894;SDS011;33653;52.302;8.134;2022-11-15T07:55:21;5.32;;;4.20;;
47894;SDS011;33653;52.302;8.134;2022-11-15T07:58:09;4.45;;;3.17;;
47894;SDS011;33653;52.302;8.134;2022-11-15T08:00:56;8.95;;;4.38;;
47894;SDS011;33653;52.302;8.134;2022-11-15T08:03:43;5.47;;;4.28;;
47894;SDS011;33653;52.302;8.134;2022-11-15T08:06:29;6.80;;;4.20;;
47894;SDS011;33653;52.302;8.134;2022-11-15T08:09:16;5.50;;;3.88;;
47894;SDS011;33653;52.302;8.134;2022-11-15T08:12:03;7.80;;;4.22;;
47894;SDS011;33653;52.302;8.134;2022-11-15T08:14:49;4.93;;;3.70;;
47894;SDS011;33653;52.302;8.134;2022-11-15T08:17:36;8.55;;;4.63;;
47894;SDS011;33653;52.302;8.134;2022-11-15T08:20:23;6.60;;;3.97;;
47894;SDS011;33653;52.302;8.134;2022-11-15T08:23:11;5.15;;;3.83;;
47894;SDS011;33653;52.302;8.134;2022-11-15T08:25:59;5.50;;;3.75;;
47894;SDS011;33653;52.302;8.134;2022-11-15T08:28:53;6.70;;;3.97;;
47894;SDS011;33653;52.302;8.134;2022-11-15T08:31:40;5.37;;;3.50;;
47894;SDS011;33653;52.302;8.134;2022-11-15T08:34:26;7.75;;;3.45;;
47894;SDS011;33653;52.302;8.134;2022-11-15T08:37:13;4.43;;;3.38;;
47894;SDS011;33653;52.302;8.134;2022-11-15T08:40:20;4.53;;;3.30;;
47894;SDS011;33653;52.302;8.134;2022-11-15T08:43:06;12.18;;;3.72;;
47894;SDS011;33653;52.302;8.134;2022-11-15T08:48:47;4.75;;;3.28;;
47894;SDS011;33653;52.302;8.134;2022-11-15T08:51:33;5.00;;;3.30;;
47894;SDS011;33653;52.302;8.134;2022-11-15T08:54:20;5.97;;;3.55;;
47894;SDS011;33653;52.302;8.134;2022-11-15T08:57:06;4.75;;;3.45;;
47894;SDS011;33653;52.302;8.134;2022-11-15T08:59:54;4.78;;;3.40;;
47894;SDS011;33653;52.302;8.134;2022-11-15T09:02:41;4.35;;;2.97;;
47894;SDS011;33653;52.302;8.134;2022-11-15T09:05:28;4.97;;;3.33;;
47894;SDS011;33653;52.302;8.134;2022-11-15T09:08:15;5.72;;;3.65;;
47894;SDS011;33653;52.302;8.134;2022-11-15T09:11:21;3.13;;;2.45;;
47894;SDS011;33653;52.302;8.134;2022-11-15T09:14:10;4.22;;;2.58;;
47894;SDS011;33653;52.302;8.134;2022-11-15T09:16:58;3.72;;;2.70;;
47894;SDS011;33653;52.302;8.134;2022-11-15T09:19:44;4.63;;;2.50;;
47894;SDS011;33653;52.302;8.134;2022-11-15T09:22:33;5.38;;;2.97;;
47894;SDS011;33653;52.302;8.134;2022-11-15T09:25:19;3.50;;;2.67;;
47894;SDS011;33653;52.302;8.134;2022-11-15T09:28:06;4.18;;;2.35;;
47894;SDS011;33653;52.302;8.134;2022-11-15T09:30:57;4.03;;;2.78;;
47894;SDS011;33653;52.302;8.134;2022-11-15T09:33:45;3.30;;;2.58;;
47894;SDS011;33653;52.302;8.134;2022-11-15T09:36:31;4.45;;;2.65;;
47894;SDS011;33653;52.302;8.134;2022-11-15T09:39:17;4.63;;;2.85;;
47894;SDS011;33653;52.302;8.134;2022-11-15T09:48:19;3.75;;;2.60;;
47894;SDS011;33653;52.302;8.134;2022-11-15T09:52:10;2.78;;;1.95;;
47894;SDS011;33653;52.302;8.134;2022-11-15T09:54:39;4.25;;;2.60;;
47894;SDS011;33653;52.302;8.134;2022-11-15T10:00:42;2.13;;;1.85;;
47894;SDS011;33653;52.302;8.134;2022-11-15T10:03:25;3.28;;;2.33;;
47894;SDS011;33653;52.302;8.134;2022-11-15T10:06:01;3.63;;;2.33;;
47894;SDS011;33653;52.302;8.134;2022-11-15T10:11:40;3.40;;;2.08;;
47894;SDS011;33653;52.302;8.134;2022-11-15T10:14:10;2.20;;;1.80;;
47894;SDS011;33653;52.302;8.134;2022-11-15T10:24:57;2.53;;;1.83;;
47894;SDS011;33653;52.302;8.134;2022-11-15T10:27:36;2.58;;;1.73;;
47894;SDS011;33653;52.302;8.134;2022-11-15T10:30:13;1.65;;;1.20;;
47894;SDS011;33653;52.302;8.134;2022-11-15T10:32:44;1.70;;;1.27;;
47894;SDS011;33653;52.302;8.134;2022-11-15T10:35:16;1.98;;;1.73;;
47894;SDS011;33653;52.302;8.134;2022-11-15T10:38:05;3.50;;;2.20;;
47894;SDS011;33653;52.302;8.134;2022-11-15T10:40:35;3.45;;;1.88;;
47894;SDS011;33653;52.302;8.134;2022-11-15T10:45:38;2.17;;;1.55;;
47894;SDS011;33653;52.302;8.134;2022-11-15T10:50:40;2.45;;;1.30;;
47894;SDS011;33653;52.302;8.134;2022-11-15T10:53:15;2.28;;;1.13;;
47894;SDS011;33653;52.302;8.134;2022-11-15T10:55:55;1.88;;;1.20;;
47894;SDS011;33653;52.302;8.134;2022-11-15T10:58:42;0.98;;;0.98;;
47894;SDS011;33653;52.302;8.134;2022-11-15T11:01:18;1.33;;;1.23;;
47894;SDS011;33653;52.302;8.134;2022-11-15T11:06:27;1.10;;;1.02;;
47894;SDS011;33653;52.302;8.134;2022-11-15T11:14:28;2.97;;;1.30;;
47894;SDS011;33653;52.302;8.134;2022-11-15T11:28:59;1.48;;;1.10;;
47894;SDS011;33653;52.302;8.134;2022-11-15T11:34:17;2.30;;;1.40;;
47894;SDS011;33653;52.302;8.134;2022-11-15T11:40:00;1.45;;;0.98;;
47894;SDS011;33653;52.302;8.134;2022-11-15T11:46:11;1.42;;;0.93;;
47894;SDS011;33653;52.302;8.134;2022-11-15T11:48:57;0.80;;;0.80;;
47894;SDS011;33653;52.302;8.134;2022-11-15T11:51:38;0.80;;;0.77;;
47894;SDS011;33653;52.302;8.134;2022-11-15T11:54:13;0.85;;;0.80;;
47894;SDS011;33653;52.302;8.134;2022-11-15T11:57:00;0.93;;;0.75;;
47894;SDS011;33653;52.302;8.134;2022-11-15T11:59:41;3.15;;;0.98;;
47894;SDS011;33653;52.302;8.134;2022-11-15T12:05:10;0.77;;;0.77;;
47894;SDS011;33653;52.302;8.134;2022-11-15T12:07:54;2.55;;;0.90;;
47894;SDS011;33653;52.302;8.134;2022-11-15T12:10:48;1.02;;;0.75;;
47894;SDS011;33653;52.302;8.134;2022-11-15T12:13:25;3.85;;;0.75;;
47894;SDS011;33653;52.302;8.134;2022-11-15T12:15:57;0.73;;;0.73;;
47894;SDS011;33653;52.302;8.134;2022-11-15T12:18:37;0.80;;;0.65;;
47894;SDS011;33653;52.302;8.134;2022-11-15T12:21:13;1.13;;;0.82;;
47894;SDS011;33653;52.302;8.134;2022-11-15T12:23:54;1.00;;;0.68;;
47894;SDS011;33653;52.302;8.134;2022-11-15T12:26:35;3.20;;;0.70;;
47894;SDS011;33653;52.302;8.134;2022-11-15T12:29:32;1.00;;;0.68;;
47894;SDS011;33653;52.302;8.134;2022-11-15T12:34:58;1.52;;;0.60;;
47894;SDS011;33653;52.302;8.134;2022-11-15T12:42:40;2.00;;;0.77;;
47894;SDS011;33653;52.302;8.134;2022-11-15T12:58:45;1.77;;;1.10;;
47894;SDS011;33653;52.302;8.134;2022-11-15T13:12:11;4.53;;;1.73;;
47894;SDS011;33653;52.302;8.134;2022-11-15T13:17:48;4.18;;;1.80;;
47894;SDS011;33653;52.302;8.134;2022-11-15T13:20:23;4.40;;;1.60;;
47894;SDS011;33653;52.302;8.134;2022-11-15T13:28:41;2.55;;;1.40;;
47894;SDS011;33653;52.302;8.134;2022-11-15T13:31:26;1.92;;;1.27;;
47894;SDS011;33653;52.302;8.134;2022-11-15T13:34:15;2.35;;;1.13;;
47894;SDS011;33653;52.302;8.134;2022-11-15T13:39:49;2.08;;;1.15;;
47894;SDS011;33653;52.302;8.134;2022-11-15T13:42:18;1.20;;;0.88;;
47894;SDS011;33653;52.302;8.134;2022-11-15T13:44:57;2.83;;;1.13;;
47894;SDS011;33653;52.302;8.134;2022-11-15T13:49:56;29.98;;;3.60;;
47894;SDS011;33653;52.302;8.134;2022-11-15T13:52:27;2.42;;;1.20;;
47894;SDS011;33653;52.302;8.134;2022-11-15T13:55:04;3.15;;;1.33;;
47894;SDS011;33653;52.302;8.134;2022-11-15T13:57:49;2.72;;;1.25;;
47894;SDS011;33653;52.302;8.134;2022-11-15T14:03:06;2.80;;;1.10;;
47894;SDS011;33653;52.302;8.134;2022-11-15T14:06:10;2.28;;;0.90;;
47894;SDS011;33653;52.302;8.134;2022-11-15T14:11:36;1.92;;;1.08;;
47894;SDS011;33653;52.302;8.134;2022-11-15T14:17:00;0.90;;;0.70;;
47894;SDS011;33653;52.302;8.134;2022-11-15T14:28:09;1.02;;;0.95;;
47894;SDS011;33653;52.302;8.134;2022-11-15T14:30:50;1.10;;;0.95;;
47894;SDS011;33653;52.302;8.134;2022-11-15T14:35:55;1.40;;;1.20;;
47894;SDS011;33653;52.302;8.134;2022-11-15T14:41:22;1.33;;;1.00;;
47894;SDS011;33653;52.302;8.134;2022-11-15T14:43:54;1.25;;;1.10;;
47894;SDS011;33653;52.302;8.134;2022-11-15T14:46:23;2.53;;;1.00;;
47894;SDS011;33653;52.302;8.134;2022-11-15T14:48:51;1.42;;;1.33;;
47894;SDS011;33653;52.302;8.134;2022-11-15T14:54:12;1.52;;;1.10;;
47894;SDS011;33653;52.302;8.134;2022-11-15T14:56:41;1.27;;;1.00;;
47894;SDS011;33653;52.302;8.134;2022-11-15T14:59:09;1.20;;;1.10;;
47894;SDS011;33653;52.302;8.134;2022-11-15T15:01:37;2.47;;;0.98;;
47894;SDS011;33653;52.302;8.134;2022-11-15T15:04:06;1.35;;;1.17;;
47894;SDS011;33653;52.302;8.134;2022-11-15T15:09:29;1.80;;;1.23;;
47894;SDS011;33653;52.302;8.134;2022-11-15T15:11:57;1.42;;;1.25;;
47894;SDS011;33653;52.302;8.134;2022-11-15T15:14:32;1.35;;;1.20;;
47894;SDS011;33653;52.302;8.134;2022-11-15T15:17:00;2.97;;;1.23;;
47894;SDS011;33653;52.302;8.134;2022-11-15T15:19:28;1.58;;;1.20;;
47894;SDS011;33653;52.302;8.134;2022-11-15T15:24:59;3.17;;;1.63;;
47894;SDS011;33653;52.302;8.134;2022-11-15T15:27:27;2.75;;;1.25;;
47894;SDS011;33653;52.302;8.134;2022-11-15T15:29:55;1.40;;;1.30;;
47894;SDS011;33653;52.302;8.134;2022-11-15T15:32:23;1.33;;;1.23;;
47894;SDS011;33653;52.302;8.134;2022-11-15T15:34:51;1.95;;;1.63;;
47894;SDS011;33653;52.302;8.134;2022-11-15T15:37:23;1.40;;;1.23;;
47894;SDS011;33653;52.302;8.134;2022-11-15T15:39:53;3.63;;;1.92;;
47894;SDS011;33653;52.302;8.134;2022-11-15T15:42:23;3.00;;;2.05;;
47894;SDS011;33653;52.302;8.134;2022-11-15T15:44:51;4.70;;;1.75;;
47894;SDS011;33653;52.302;8.134;2022-11-15T15:47:20;4.55;;;2.83;;
47894;SDS011;33653;52.302;8.134;2022-11-15T15:49:49;9.90;;;3.53;;
47894;SDS011;33653;52.302;8.134;2022-11-15T15:52:17;4.93;;;3.08;;
47894;SDS011;33653;52.302;8.134;2022-11-15T15:54:46;5.13;;;3.38;;
47894;SDS011;33653;52.302;8.134;2022-11-15T15:57:17;3.58;;;2.83;;
47894;SDS011;33653;52.302;8.134;2022-11-15T15:59:47;8.20;;;2.33;;
47894;SDS011;33653;52.302;8.134;2022-11-15T16:02:19;3.22;;;2.20;;
47894;SDS011;33653;52.302;8.134;2022-11-15T16:04:49;2.75;;;2.13;;
47894;SDS011;33653;52.302;8.134;2022-11-15T16:07:23;2.33;;;1.83;;
47894;SDS011;33653;52.302;8.134;2022-11-15T16:09:51;2.10;;;1.80;;
47894;SDS011;33653;52.302;8.134;2022-11-15T16:12:32;3.15;;;1.92;;
47894;SDS011;33653;52.302;8.134;2022-11-15T16:15:01;3.50;;;2.03;;
47894;SDS011;33653;52.302;8.134;2022-11-15T16:17:33;5.45;;;3.22;;
47894;SDS011;33653;52.302;8.134;2022-11-15T16:20:06;3.58;;;2.65;;
47894;SDS011;33653;52.302;8.134;2022-11-15T16:22:38;3.00;;;2.20;;
47894;SDS011;33653;52.302;8.134;2022-11-15T16:25:06;4.95;;;2.50;;
47894;SDS011;33653;52.302;8.134;2022-11-15T16:27:34;2.35;;;2.00;;
47894;SDS011;33653;52.302;8.134;2022-11-15T16:30:07;3.33;;;2.13;;
47894;SDS011;33653;52.302;8.134;2022-11-15T16:32:42;4.45;;;2.10;;
47894;SDS011;33653;52.302;8.134;2022-11-15T16:35:10;4.60;;;2.20;;
47894;SDS011;33653;52.302;8.134;2022-11-15T16:37:42;3.47;;;2.50;;
47894;SDS011;33653;52.302;8.134;2022-11-15T16:42:57;5.05;;;2.65;;
47894;SDS011;33653;52.302;8.134;2022-11-15T16:45:28;4.28;;;2.55;;
47894;SDS011;33653;52.302;8.134;2022-11-15T16:48:01;4.45;;;2.83;;
47894;SDS011;33653;52.302;8.134;2022-11-15T16:50:30;3.92;;;3.00;;
47894;SDS011;33653;52.302;8.134;2022-11-15T16:53:05;5.32;;;3.22;;
47894;SDS011;33653;52.302;8.134;2022-11-15T16:55:35;3.58;;;2.50;;
47894;SDS011;33653;52.302;8.134;2022-11-15T16:58:03;4.07;;;2.92;;
47894;SDS011;33653;52.302;8.134;2022-11-15T17:00:33;5.47;;;2.70;;
47894;SDS011;33653;52.302;8.134;2022-11-15T17:03:00;6.78;;;3.28;;
47894;SDS011;33653;52.302;8.134;2022-11-15T17:05:29;6.32;;;2.00;;
47894;SDS011;33653;52.302;8.134;2022-11-15T17:07:57;4.32;;;2.72;;
47894;SDS011;33653;52.302;8.134;2022-11-15T17:13:24;5.32;;;2.85;;
47894;SDS011;33653;52.302;8.134;2022-11-15T17:16:02;11.88;;;2.35;;
47894;SDS011;33653;52.302;8.134;2022-11-15T17:18:31;3.72;;;2.92;;
47894;SDS011;33653;52.302;8.134;2022-11-15T17:21:04;3.85;;;3.08;;
47894;SDS011;33653;52.302;8.134;2022-11-15T17:23:42;6.65;;;2.50;;
47894;SDS011;33653;52.302;8.134;2022-11-15T17:26:12;5.45;;;2.60;;
47894;SDS011;33653;52.302;8.134;2022-11-15T17:28:56;3.63;;;2.35;;
47894;SDS011;33653;52.302;8.134;2022-11-15T17:34:19;4.05;;;2.90;;
47894;SDS011;33653;52.302;8.134;2022-11-15T17:36:47;2.63;;;2.10;;
47894;SDS011;33653;52.302;8.134;2022-11-15T17:42:03;3.08;;;2.17;;
47894;SDS011;33653;52.302;8.134;2022-11-15T17:44:32;4.28;;;2.63;;
47894;SDS011;33653;52.302;8.134;2022-11-15T17:47:00;2.55;;;2.15;;
47894;SDS011;33653;52.302;8.134;2022-11-15T17:52:20;5.85;;;2.63;;
47894;SDS011;33653;52.302;8.134;2022-11-15T17:54:54;4.30;;;2.60;;
47894;SDS011;33653;52.302;8.134;2022-11-15T17:57:25;5.32;;;2.80;;
47894;SDS011;33653;52.302;8.134;2022-11-15T18:00:01;3.10;;;2.42;;
47894;SDS011;33653;52.302;8.134;2022-11-15T18:02:30;3.60;;;2.60;;
47894;SDS011;33653;52.302;8.134;2022-11-15T18:04:57;7.38;;;2.63;;
47894;SDS011;33653;52.302;8.134;2022-11-15T18:10:20;5.15;;;3.00;;
47894;SDS011;33653;52.302;8.134;2022-11-15T18:12:51;2.95;;;2.47;;
47894;SDS011;33653;52.302;8.134;2022-11-15T18:15:19;3.80;;;2.50;;
47894;SDS011;33653;52.302;8.134;2022-11-15T18:17:53;4.20;;;2.90;;
47894;SDS011;33653;52.302;8.134;2022-11-15T18:20:41;4.25;;;2.85;;
47894;SDS011;33653;52.302;8.134;2022-11-15T18:23:09;3.10;;;2.47;;
47894;SDS011;33653;52.302;8.134;2022-11-15T18:25:37;3.88;;;2.80;;
47894;SDS011;33653;52.302;8.134;2022-11-15T18:28:05;4.35;;;3.10;;
47894;SDS011;33653;52.302;8.134;2022-11-15T18:30:44;6.82;;;3.00;;
47894;SDS011;33653;52.302;8.134;2022-11-15T18:33:13;4.00;;;2.50;;
47894;SDS011;33653;52.302;8.134;2022-11-15T18:35:47;3.00;;;2.42;;
47894;SDS011;33653;52.302;8.134;2022-11-15T18:38:21;7.63;;;3.38;;
47894;SDS011;33653;52.302;8.134;2022-11-15T18:40:49;5.50;;;3.05;;
47894;SDS011;33653;52.302;8.134;2022-11-15T18:43:17;4.25;;;3.13;;
47894;SDS011;33653;52.302;8.134;2022-11-15T18:45:45;5.18;;;3.38;;
47894;SDS011;33653;52.302;8.134;2022-11-15T18:48:16;6.75;;;4.13;;
47894;SDS011;33653;52.302;8.134;2022-11-15T18:50:44;5.05;;;3.40;;
47894;SDS011;33653;52.302;8.134;2022-11-15T18:53:12;4.95;;;3.38;;
47894;SDS011;33653;52.302;8.134;2022-11-15T18:55:45;5.93;;;3.55;;
47894;SDS011;33653;52.302;8.134;2022-11-15T18:58:14;3.65;;;2.83;;
47894;SDS011;33653;52.302;8.134;2022-11-15T19:00:45;4.82;;;3.28;;
47894;SDS011;33653;52.302;8.134;2022-11-15T19:03:16;6.40;;;3.33;;
47894;SDS011;33653;52.302;8.134;2022-11-15T19:05:50;5.40;;;3.00;;
47894;SDS011;33653;52.302;8.134;2022-11-15T19:08:20;3.92;;;3.03;;
47894;SDS011;33653;52.302;8.134;2022-11-15T19:10:48;3.15;;;2.33;;
47894;SDS011;33653;52.302;8.134;2022-11-15T19:13:17;5.78;;;3.17;;
47894;SDS011;33653;52.302;8.134;2022-11-15T19:15:45;6.10;;;3.00;;
47894;SDS011;33653;52.302;8.134;2022-11-15T19:18:21;4.00;;;2.58;;
47894;SDS011;33653;52.302;8.134;2022-11-15T19:20:49;5.82;;;2.70;;
47894;SDS011;33653;52.302;8.134;2022-11-15T19:23:17;3.95;;;3.20;;
47894;SDS011;33653;52.302;8.134;2022-11-15T19:25:56;5.82;;;3.35;;
47894;SDS011;33653;52.302;8.134;2022-11-15T19:28:26;4.35;;;3.45;;
47894;SDS011;33653;52.302;8.134;2022-11-15T19:33:33;2.90;;;2.47;;
47894;SDS011;33653;52.302;8.134;2022-11-15T19:36:02;5.78;;;3.53;;
47894;SDS011;33653;52.302;8.134;2022-11-15T19:38:33;4.25;;;2.85;;
47894;SDS011;33653;52.302;8.134;2022-11-15T19:41:03;3.17;;;2.72;;
47894;SDS011;33653;52.302;8.134;2022-11-15T19:46:29;4.80;;;3.15;;